createdAt,value
2022-10-15T00:00:23.559Z,0.63
2022-10-15T00:02:26.273Z,0.80
2022-10-15T00:04:28.831Z,0.80
2022-10-15T00:06:31.487Z,0.70
2022-10-15T00:08:34.232Z,0.80
2022-10-15T00:10:37.548Z,0.85
2022-10-15T00:12:40.400Z,0.80
2022-10-15T00:14:44.310Z,0.88
2022-10-15T00:16:47.297Z,0.60
2022-10-15T00:18:51.592Z,0.75
2022-10-15T00:20:54.150Z,0.70
2022-10-15T00:22:56.748Z,0.50
2022-10-15T00:24:59.502Z,0.60
2022-10-15T00:27:02.094Z,0.40
2022-10-15T00:29:05.699Z,0.60
2022-10-15T00:31:12.252Z,0.60
2022-10-15T00:33:14.808Z,0.60
2022-10-15T00:35:17.432Z,0.50
2022-10-15T00:37:21.270Z,0.50
2022-10-15T00:39:23.841Z,0.60
2022-10-15T00:41:30.472Z,0.47
2022-10-15T00:45:39.363Z,0.98
2022-10-15T00:47:47.912Z,0.40
2022-10-15T00:49:57.608Z,0.50
2022-10-15T00:52:07.519Z,0.50
2022-10-15T00:54:11.207Z,0.52
2022-10-15T00:56:15.915Z,0.40
2022-10-15T00:58:27.790Z,0.30
2022-10-15T01:00:30.508Z,0.45
2022-10-15T01:02:33.364Z,0.40
2022-10-15T01:04:38.546Z,0.60
2022-10-15T01:06:41.138Z,0.28
2022-10-15T01:08:43.958Z,0.40
2022-10-15T01:10:53.874Z,0.35
2022-10-15T01:13:04.158Z,0.17
2022-10-15T01:15:16.465Z,0.60
2022-10-15T01:17:23.218Z,0.30
2022-10-15T01:19:41.798Z,0.40
2022-10-15T01:24:24.796Z,0.40
2022-10-15T01:26:56.103Z,0.40
2022-10-15T01:29:11.511Z,0.50
2022-10-15T01:31:25.310Z,0.30
2022-10-15T01:33:36.708Z,0.40
2022-10-15T01:35:48.363Z,0.40
2022-10-15T01:37:56.790Z,0.60
2022-10-15T01:40:06.184Z,0.45
2022-10-15T01:42:16.471Z,0.22
2022-10-15T01:44:24.269Z,0.40
2022-10-15T01:46:34.706Z,1.20
2022-10-15T01:48:39.569Z,0.30
2022-10-15T01:50:46.628Z,0.50
2022-10-15T01:52:51.371Z,0.40
2022-10-15T01:54:55.130Z,0.30
2022-10-15T01:56:59.770Z,0.65
2022-10-15T01:59:05.607Z,0.40
2022-10-15T02:01:08.639Z,0.52
2022-10-15T02:03:12.638Z,0.32
2022-10-15T02:05:19.037Z,0.50
2022-10-15T02:07:32.139Z,0.43
2022-10-15T02:09:43.978Z,0.40
2022-10-15T02:11:57.104Z,0.40
2022-10-15T02:14:04.818Z,0.30
2022-10-15T02:16:14.942Z,0.73
2022-10-15T02:18:25.838Z,0.32
2022-10-15T02:20:34.696Z,0.50
2022-10-15T02:22:44.829Z,0.45
2022-10-15T02:24:55.346Z,0.52
2022-10-15T02:27:00.411Z,0.40
2022-10-15T02:29:06.601Z,0.50
2022-10-15T02:31:11.487Z,0.30
2022-10-15T02:33:15.855Z,0.70
2022-10-15T02:35:22.332Z,0.95
2022-10-15T02:37:28.685Z,2.13
2022-10-15T02:39:31.792Z,0.60
2022-10-15T02:41:36.377Z,0.10
2022-10-15T02:43:40.315Z,0.28
2022-10-15T02:45:43.183Z,0.47
2022-10-15T02:47:46.081Z,0.40
2022-10-15T02:49:48.663Z,0.40
2022-10-15T02:51:52.605Z,0.60
2022-10-15T02:53:55.251Z,0.50
2022-10-15T02:55:57.837Z,1.52
2022-10-15T02:58:00.405Z,0.40
2022-10-15T03:00:03.007Z,0.32
2022-10-15T03:02:05.803Z,0.52
2022-10-15T03:04:08.528Z,0.20
2022-10-15T03:06:11.199Z,0.40
2022-10-15T03:08:15.162Z,0.40
2022-10-15T03:10:17.839Z,0.22
2022-10-15T03:12:23.239Z,0.30
2022-10-15T03:14:25.936Z,0.60
2022-10-15T03:16:28.544Z,0.60
2022-10-15T03:18:31.118Z,0.68
2022-10-15T03:20:33.807Z,0.60
2022-10-15T03:22:36.497Z,0.50
2022-10-15T03:24:40.464Z,0.50
2022-10-15T03:26:43.070Z,0.40
2022-10-15T03:28:45.761Z,0.28
2022-10-15T03:30:48.822Z,0.50
2022-10-15T03:32:51.520Z,0.32
2022-10-15T03:34:54.150Z,0.43
2022-10-15T03:36:56.744Z,0.32
2022-10-15T03:38:59.322Z,0.30
2022-10-15T03:41:03.626Z,0.40
2022-10-15T03:43:06.759Z,0.60
2022-10-15T03:45:10.622Z,0.30
2022-10-15T03:47:13.177Z,0.43
2022-10-15T03:49:15.823Z,0.60
2022-10-15T03:51:22.703Z,0.60
2022-10-15T03:53:27.294Z,0.50
2022-10-15T03:55:29.850Z,0.50
2022-10-15T03:57:33.772Z,0.43
2022-10-15T03:59:36.410Z,0.68
2022-10-15T04:01:39.002Z,0.40
2022-10-15T04:03:42.017Z,0.60
2022-10-15T04:05:53.850Z,0.40
2022-10-15T04:07:58.205Z,0.40
2022-10-15T04:10:00.779Z,0.40
2022-10-15T04:12:03.345Z,0.50
2022-10-15T04:14:07.816Z,0.70
2022-10-15T04:16:10.387Z,0.50
2022-10-15T04:18:13.908Z,0.38
2022-10-15T04:20:16.631Z,0.40
2022-10-15T04:22:20.041Z,0.40
2022-10-15T04:24:22.666Z,0.30
2022-10-15T04:26:25.305Z,0.22
2022-10-15T04:28:28.276Z,0.20
2022-10-15T04:30:32.403Z,0.22
2022-10-15T04:32:34.982Z,0.40
2022-10-15T04:34:38.959Z,0.30
2022-10-15T04:36:41.532Z,0.30
2022-10-15T04:38:44.301Z,0.30
2022-10-15T04:40:46.873Z,0.52
2022-10-15T04:42:49.459Z,0.40
2022-10-15T04:44:52.111Z,0.30
2022-10-15T04:46:56.054Z,0.47
2022-10-15T04:48:58.898Z,0.43
2022-10-15T04:51:04.916Z,0.77
2022-10-15T04:53:07.547Z,0.50
2022-10-15T04:55:10.616Z,0.70
2022-10-15T04:57:13.346Z,0.35
2022-10-15T04:59:16.006Z,0.28
2022-10-15T05:01:21.046Z,0.25
2022-10-15T05:03:25.143Z,0.52
2022-10-15T05:05:27.802Z,0.40
2022-10-15T05:07:30.411Z,0.40
2022-10-15T05:09:36.735Z,0.40
2022-10-15T05:11:40.073Z,0.22
2022-10-15T05:13:43.414Z,0.50
2022-10-15T05:15:46.014Z,0.50
2022-10-15T05:17:48.664Z,0.52
2022-10-15T05:19:52.654Z,0.50
2022-10-15T05:21:55.237Z,0.40
2022-10-15T05:23:58.244Z,0.35
2022-10-15T05:26:01.095Z,0.52
2022-10-15T05:28:03.694Z,0.47
2022-10-15T05:30:07.223Z,0.60
2022-10-15T05:32:09.875Z,0.52
2022-10-15T05:34:13.629Z,0.60
2022-10-15T05:36:19.852Z,0.65
2022-10-15T05:38:22.497Z,0.68
2022-10-15T05:40:25.225Z,0.82
2022-10-15T05:42:27.876Z,0.73
2022-10-15T05:44:30.466Z,0.55
2022-10-15T05:46:33.074Z,0.30
2022-10-15T05:48:35.908Z,0.60
2022-10-15T05:50:38.502Z,0.60
2022-10-15T05:52:42.431Z,0.60
2022-10-15T05:54:45.088Z,0.50
2022-10-15T05:56:47.711Z,0.82
2022-10-15T05:58:51.180Z,0.65
2022-10-15T06:00:57.837Z,0.50
2022-10-15T06:03:00.429Z,0.60
2022-10-15T06:05:03.245Z,0.50
2022-10-15T06:07:05.937Z,0.57
2022-10-15T06:09:10.270Z,0.52
2022-10-15T06:11:13.177Z,0.63
2022-10-15T06:13:18.194Z,0.70
2022-10-15T06:15:21.151Z,0.68
2022-10-15T06:17:24.032Z,0.60
2022-10-15T06:19:26.915Z,0.90
2022-10-15T06:21:29.511Z,0.43
2022-10-15T06:23:32.155Z,0.50
2022-10-15T06:25:36.146Z,0.65
2022-10-15T06:27:38.892Z,0.50
2022-10-15T06:29:41.550Z,0.73
2022-10-15T06:31:44.233Z,0.70
2022-10-15T06:33:46.880Z,0.50
2022-10-15T06:35:49.552Z,0.50
2022-10-15T06:37:52.541Z,1.27
2022-10-15T06:39:55.159Z,0.70
2022-10-15T06:41:59.148Z,0.70
2022-10-15T06:44:01.741Z,0.55
2022-10-15T06:46:06.127Z,0.55
2022-10-15T06:48:08.779Z,0.52
2022-10-15T06:50:12.120Z,0.70
2022-10-15T06:52:14.769Z,0.80
2022-10-15T06:54:17.426Z,0.90
2022-10-15T06:56:20.078Z,1.00
2022-10-15T06:58:24.033Z,1.20
2022-10-15T07:00:27.078Z,0.85
2022-10-15T07:02:29.826Z,0.90
2022-10-15T07:04:32.433Z,1.00
2022-10-15T07:06:35.722Z,0.70
2022-10-15T07:08:38.571Z,0.90
2022-10-15T07:10:41.208Z,0.80
2022-10-15T07:12:43.875Z,0.80
2022-10-15T07:14:47.873Z,0.75
2022-10-15T07:16:50.495Z,0.80
2022-10-15T07:18:53.258Z,0.60
2022-10-15T07:20:57.895Z,0.80
2022-10-15T07:23:02.084Z,0.63
2022-10-15T07:25:05.013Z,0.77
2022-10-15T07:27:08.143Z,0.90
2022-10-15T07:29:20.994Z,0.80
2022-10-15T07:31:25.229Z,0.93
2022-10-15T07:33:27.935Z,0.60
2022-10-15T07:35:30.564Z,0.90
2022-10-15T07:37:33.450Z,0.52
2022-10-15T07:39:39.167Z,0.70
2022-10-15T07:41:43.584Z,0.80
2022-10-15T07:43:46.365Z,0.70
2022-10-15T07:45:50.376Z,0.73
2022-10-15T07:47:55.316Z,0.93
2022-10-15T07:49:57.959Z,0.93
2022-10-15T07:52:00.644Z,1.00
2022-10-15T07:54:03.329Z,0.80
2022-10-15T07:56:08.016Z,1.13
2022-10-15T07:58:10.721Z,0.75
2022-10-15T08:00:14.028Z,1.25
2022-10-15T08:02:17.313Z,1.00
2022-10-15T08:04:21.389Z,0.90
2022-10-15T08:06:24.028Z,0.73
2022-10-15T08:08:26.694Z,1.05
2022-10-15T08:10:29.378Z,0.80
2022-10-15T08:12:32.132Z,0.90
2022-10-15T08:14:35.393Z,0.75
2022-10-15T08:16:38.042Z,0.70
2022-10-15T08:18:41.334Z,0.80
2022-10-15T08:20:45.423Z,0.85
2022-10-15T08:22:48.092Z,1.13
2022-10-15T08:24:51.399Z,0.60
2022-10-15T08:26:54.032Z,0.70
2022-10-15T08:28:56.850Z,0.75
2022-10-15T08:31:04.298Z,0.80
2022-10-15T08:33:08.431Z,0.75
2022-10-15T08:35:11.013Z,0.80
2022-10-15T08:39:22.572Z,0.90
2022-10-15T08:41:30.806Z,0.80
2022-10-15T08:43:38.479Z,0.70
2022-10-15T08:45:46.072Z,0.60
2022-10-15T08:47:56.298Z,0.82
2022-10-15T08:50:01.081Z,0.73
2022-10-15T08:52:15.733Z,0.75
2022-10-15T08:54:20.338Z,0.70
2022-10-15T08:56:27.944Z,0.60
2022-10-15T08:58:42.326Z,0.80
2022-10-15T09:00:51.705Z,0.70
2022-10-15T09:03:01.426Z,0.90
2022-10-15T09:05:23.778Z,0.80
2022-10-15T09:07:35.667Z,0.70
2022-10-15T09:09:45.000Z,0.50
2022-10-15T09:11:58.411Z,0.50
2022-10-15T09:14:01.545Z,0.60
2022-10-15T09:16:11.982Z,0.70
2022-10-15T09:18:21.048Z,0.60
2022-10-15T09:20:27.422Z,0.50
2022-10-15T09:22:34.589Z,0.60
2022-10-15T09:24:38.799Z,0.60
2022-10-15T09:26:55.326Z,0.60
2022-10-15T09:29:07.361Z,0.70
2022-10-15T09:31:13.956Z,0.80
2022-10-15T09:33:32.823Z,0.90
2022-10-15T09:35:39.987Z,0.60
2022-10-15T09:37:51.640Z,0.60
2022-10-15T09:40:09.973Z,0.90
2022-10-15T09:44:24.201Z,0.65
2022-10-15T09:46:26.830Z,0.40
2022-10-15T09:48:34.854Z,1.60
2022-10-15T09:50:43.721Z,0.70
2022-10-15T09:53:01.680Z,0.50
2022-10-15T09:55:17.200Z,0.55
2022-10-15T09:57:23.551Z,0.50
2022-10-15T09:59:26.743Z,0.55
2022-10-15T10:01:31.701Z,0.40
2022-10-15T10:03:36.189Z,1.00
2022-10-15T10:05:39.924Z,0.60
2022-10-15T10:07:42.575Z,0.95
2022-10-15T10:09:53.008Z,0.60
2022-10-15T10:12:00.647Z,0.60
2022-10-15T10:14:05.626Z,0.57
2022-10-15T10:16:11.368Z,0.75
2022-10-15T10:18:20.538Z,0.80
2022-10-15T10:20:24.576Z,0.80
2022-10-15T10:22:27.361Z,0.65
2022-10-15T10:24:34.216Z,0.82
2022-10-15T10:26:37.188Z,0.57
2022-10-15T10:28:47.926Z,0.80
2022-10-15T10:31:03.274Z,0.65
2022-10-15T10:33:06.806Z,1.30
2022-10-15T10:35:22.306Z,0.82
2022-10-15T10:37:25.775Z,1.10
2022-10-15T10:39:30.565Z,0.70
2022-10-15T10:41:50.730Z,0.82
2022-10-15T10:43:56.634Z,0.70
2022-10-15T10:46:01.420Z,0.70
2022-10-15T10:48:19.831Z,2.47
2022-10-15T10:50:32.252Z,1.70
2022-10-15T10:54:38.732Z,1.58
2022-10-15T10:56:44.261Z,2.53
2022-10-15T10:58:47.199Z,1.17
2022-10-15T11:00:53.262Z,1.27
2022-10-15T11:02:56.212Z,0.70
2022-10-15T11:04:58.971Z,1.23
2022-10-15T11:07:05.383Z,0.85
2022-10-15T11:11:24.913Z,0.90
2022-10-15T11:13:40.092Z,0.95
2022-10-15T11:15:50.458Z,2.63
2022-10-15T11:18:05.820Z,1.00
2022-10-15T11:22:52.755Z,0.60
2022-10-15T11:25:07.527Z,0.70
2022-10-15T11:27:23.450Z,0.70
2022-10-15T11:29:33.097Z,0.50
2022-10-15T11:31:55.075Z,0.90
2022-10-15T11:34:21.998Z,0.77
2022-10-15T11:36:37.243Z,0.60
2022-10-15T11:38:46.904Z,0.82
2022-10-15T11:41:04.833Z,0.88
2022-10-15T11:43:18.796Z,0.70
2022-10-15T11:45:58.950Z,0.73
2022-10-15T11:48:06.831Z,1.00
2022-10-15T11:50:28.778Z,0.55
2022-10-15T11:52:48.970Z,0.95
2022-10-15T11:55:03.274Z,0.80
2022-10-15T11:57:09.721Z,0.75
2022-10-15T12:01:26.995Z,0.73
2022-10-15T12:03:36.608Z,0.50
2022-10-15T12:05:45.974Z,0.73
2022-10-15T12:07:50.792Z,0.73
2022-10-15T12:09:56.661Z,0.50
2022-10-15T12:12:08.278Z,0.60
2022-10-15T12:14:21.413Z,0.70
2022-10-15T12:16:31.135Z,0.68
2022-10-15T12:18:39.413Z,0.60
2022-10-15T12:20:44.238Z,0.70
2022-10-15T12:22:56.327Z,0.80
2022-10-15T12:24:58.959Z,0.60
2022-10-15T12:27:16.599Z,0.50
2022-10-15T12:29:23.090Z,0.80
2022-10-15T12:31:26.648Z,0.70
2022-10-15T12:33:37.612Z,0.77
2022-10-15T12:35:40.916Z,0.70
2022-10-15T12:37:47.928Z,0.60
2022-10-15T12:39:56.978Z,0.80
2022-10-15T12:42:00.989Z,0.50
2022-10-15T12:44:09.860Z,0.60
2022-10-15T12:46:13.688Z,0.60
2022-10-15T12:48:36.086Z,0.63
2022-10-15T12:50:38.822Z,0.60
2022-10-15T12:52:58.355Z,0.73
2022-10-15T12:55:22.350Z,0.68
2022-10-15T12:57:53.308Z,0.60
2022-10-15T12:59:58.107Z,0.82
2022-10-15T13:02:00.731Z,0.65
2022-10-15T13:04:03.699Z,0.90
2022-10-15T13:06:31.407Z,1.30
2022-10-15T13:08:35.460Z,0.65
2022-10-15T13:10:41.386Z,0.70
2022-10-15T13:12:44.168Z,0.90
2022-10-15T13:14:53.806Z,0.85
2022-10-15T13:16:57.785Z,0.73
2022-10-15T13:19:01.616Z,0.82
2022-10-15T13:21:05.376Z,0.82
2022-10-15T13:23:29.020Z,0.65
2022-10-15T13:25:33.838Z,0.68
2022-10-15T13:27:38.269Z,0.80
2022-10-15T13:29:40.959Z,0.82
2022-10-15T13:31:44.991Z,1.00
2022-10-15T13:33:51.882Z,0.85
2022-10-15T13:35:54.830Z,0.80
2022-10-15T13:37:58.071Z,0.85
2022-10-15T13:40:04.684Z,0.90
2022-10-15T13:42:17.426Z,0.80
2022-10-15T13:44:22.304Z,0.90
2022-10-15T13:46:25.739Z,0.93
2022-10-15T13:48:30.469Z,0.90
2022-10-15T13:50:35.879Z,0.88
2022-10-15T13:52:40.824Z,1.00
2022-10-15T13:54:46.376Z,0.90
2022-10-15T13:56:55.639Z,0.90
2022-10-15T13:59:01.129Z,1.25
2022-10-15T14:01:09.335Z,0.90
2022-10-15T14:03:18.883Z,1.10
2022-10-15T14:05:24.814Z,1.10
2022-10-15T14:07:28.175Z,0.90
2022-10-15T14:09:33.650Z,1.25
2022-10-15T14:11:36.464Z,0.80
2022-10-15T14:13:45.399Z,1.02
2022-10-15T14:15:57.527Z,0.70
2022-10-15T14:18:00.163Z,0.70
2022-10-15T14:20:28.258Z,0.95
2022-10-15T14:22:31.563Z,0.70
2022-10-15T14:24:36.101Z,0.70
2022-10-15T14:26:39.241Z,0.90
2022-10-15T14:28:42.981Z,0.73
2022-10-15T14:30:47.935Z,0.90
2022-10-15T14:32:52.703Z,0.82
2022-10-15T14:34:56.171Z,0.60
2022-10-15T14:36:58.924Z,0.70
2022-10-15T14:39:28.049Z,1.17
2022-10-15T14:41:34.310Z,0.93
2022-10-15T14:43:38.091Z,0.82
2022-10-15T14:45:44.821Z,0.70
2022-10-15T14:47:50.329Z,0.70
2022-10-15T14:49:57.902Z,0.80
2022-10-15T14:52:05.724Z,0.80
2022-10-15T14:54:19.561Z,0.90
2022-10-15T14:56:25.168Z,1.00
2022-10-15T14:58:29.586Z,0.80
2022-10-15T15:00:35.639Z,0.75
2022-10-15T15:02:38.334Z,1.00
2022-10-15T15:04:43.646Z,0.90
2022-10-15T15:06:47.638Z,0.60
2022-10-15T15:08:57.752Z,0.70
2022-10-15T15:11:02.949Z,0.68
2022-10-15T15:13:05.697Z,0.70
2022-10-15T15:15:16.242Z,0.88
2022-10-15T15:17:21.964Z,0.80
2022-10-15T15:19:24.661Z,0.50
2022-10-15T15:21:27.359Z,0.93
2022-10-15T15:23:31.350Z,0.70
2022-10-15T15:25:37.089Z,0.90
2022-10-15T15:27:39.932Z,0.98
2022-10-15T15:29:43.083Z,0.90
2022-10-15T15:31:45.898Z,1.05
2022-10-15T15:33:48.532Z,0.70
2022-10-15T15:35:54.168Z,0.70
2022-10-15T15:37:56.790Z,0.80
2022-10-15T15:39:59.378Z,0.60
2022-10-15T15:42:03.517Z,0.52
2022-10-15T15:44:07.424Z,0.52
2022-10-15T15:46:10.567Z,0.90
2022-10-15T15:48:14.140Z,0.80
2022-10-15T15:50:17.713Z,1.00
2022-10-15T15:52:20.372Z,1.08
2022-10-15T15:54:23.016Z,0.68
2022-10-15T15:56:26.503Z,0.60
2022-10-15T15:58:30.511Z,0.60
2022-10-15T16:00:33.135Z,0.60
2022-10-15T16:02:36.305Z,0.68
2022-10-15T16:04:38.947Z,0.60
2022-10-15T16:06:42.306Z,1.00
2022-10-15T16:08:44.974Z,0.80
2022-10-15T16:10:47.620Z,0.70
2022-10-15T16:12:50.273Z,0.80
2022-10-15T16:14:54.549Z,0.80
2022-10-15T16:16:57.158Z,0.70
2022-10-15T16:18:59.793Z,0.80
2022-10-15T16:21:02.415Z,0.68
2022-10-15T16:23:05.062Z,0.82
2022-10-15T16:25:08.987Z,0.60
2022-10-15T16:27:11.968Z,0.65
2022-10-15T16:29:16.852Z,1.05
2022-10-15T16:31:25.327Z,0.90
2022-10-15T16:33:30.584Z,0.68
2022-10-15T16:35:33.242Z,0.70
2022-10-15T16:37:36.129Z,0.88
2022-10-15T16:39:38.779Z,0.60
2022-10-15T16:41:41.455Z,0.75
2022-10-15T16:43:44.181Z,0.80
2022-10-15T16:45:55.707Z,0.80
2022-10-15T16:47:59.713Z,0.55
2022-10-15T16:50:02.818Z,0.75
2022-10-15T16:52:05.837Z,0.90
2022-10-15T16:54:08.468Z,0.73
2022-10-15T16:56:14.327Z,0.70
2022-10-15T16:58:16.958Z,0.90
2022-10-15T17:00:19.593Z,1.10
2022-10-15T17:02:22.320Z,0.85
2022-10-15T17:04:26.684Z,0.77
2022-10-15T17:06:31.975Z,0.80
2022-10-15T17:08:40.168Z,0.82
2022-10-15T17:10:45.190Z,0.80
2022-10-15T17:12:48.150Z,0.77
2022-10-15T17:14:51.879Z,0.95
2022-10-15T17:16:54.504Z,0.90
2022-10-15T17:18:58.111Z,0.80
2022-10-15T17:21:02.189Z,0.90
2022-10-15T17:23:04.792Z,0.85
2022-10-15T17:25:07.685Z,1.00
2022-10-15T17:27:10.323Z,0.80
2022-10-15T17:29:16.275Z,0.95
2022-10-15T17:31:20.909Z,0.90
2022-10-15T17:33:23.722Z,1.13
2022-10-15T17:35:26.420Z,1.10
2022-10-15T17:37:30.494Z,0.85
2022-10-15T17:39:33.169Z,0.65
2022-10-15T17:41:35.750Z,1.20
2022-10-15T17:43:40.111Z,1.00
2022-10-15T17:45:43.086Z,0.85
2022-10-15T17:47:45.768Z,1.00
2022-10-15T17:49:48.368Z,1.08
2022-10-15T17:51:51.295Z,1.00
2022-10-15T17:53:55.281Z,1.10
2022-10-15T17:55:58.407Z,1.08
2022-10-15T17:58:01.058Z,1.02
2022-10-15T18:00:03.786Z,0.80
2022-10-15T18:02:06.430Z,0.98
2022-10-15T18:04:09.080Z,1.00
2022-10-15T18:06:13.495Z,0.90
2022-10-15T18:08:16.250Z,1.23
2022-10-15T18:10:20.348Z,0.90
2022-10-15T18:12:23.032Z,1.10
2022-10-15T18:14:25.733Z,1.05
2022-10-15T18:16:28.507Z,1.00
2022-10-15T18:18:32.314Z,0.95
2022-10-15T18:20:34.914Z,0.70
2022-10-15T18:22:38.010Z,1.20
2022-10-15T18:24:40.638Z,0.85
2022-10-15T18:26:45.114Z,0.80
2022-10-15T18:28:49.531Z,0.95
2022-10-15T18:30:52.178Z,1.13
2022-10-15T18:32:57.333Z,0.80
2022-10-15T18:35:01.518Z,1.00
2022-10-15T18:37:04.330Z,0.75
2022-10-15T18:39:06.952Z,0.73
2022-10-15T18:41:14.369Z,0.77
2022-10-15T18:43:19.577Z,0.80
2022-10-15T18:45:22.420Z,1.20
2022-10-15T18:47:25.072Z,1.00
2022-10-15T18:49:27.722Z,1.02
2022-10-15T18:51:31.061Z,2.67
2022-10-15T18:53:35.284Z,1.50
2022-10-15T18:55:38.692Z,0.70
2022-10-15T18:57:41.445Z,1.10
2022-10-15T18:59:47.350Z,1.00
2022-10-15T19:01:50.726Z,1.60
2022-10-15T19:03:53.825Z,1.10
2022-10-15T19:05:56.474Z,1.15
2022-10-15T19:07:59.221Z,1.00
2022-10-15T19:10:01.853Z,0.98
2022-10-15T19:12:05.595Z,1.25
2022-10-15T19:14:08.403Z,0.85
2022-10-15T19:16:12.711Z,0.82
2022-10-15T19:18:16.550Z,1.40
2022-10-15T19:20:19.204Z,1.00
2022-10-15T19:22:21.968Z,1.25
2022-10-15T19:24:25.154Z,1.90
2022-10-15T19:26:28.425Z,1.00
2022-10-15T19:28:31.063Z,1.73
2022-10-15T19:30:34.044Z,1.00
2022-10-15T19:32:38.178Z,1.02
2022-10-15T19:34:40.849Z,1.00
2022-10-15T19:36:46.371Z,1.10
2022-10-15T19:38:49.108Z,1.23
2022-10-15T19:40:52.378Z,1.40
2022-10-15T19:42:55.003Z,1.15
2022-10-15T19:44:57.606Z,1.00
2022-10-15T19:47:00.258Z,1.30
2022-10-15T19:49:04.999Z,1.02
2022-10-15T19:51:07.954Z,1.20
2022-10-15T19:53:12.545Z,0.98
2022-10-15T19:55:15.438Z,1.10
2022-10-15T19:57:18.061Z,1.02
2022-10-15T19:59:20.735Z,1.30
2022-10-15T20:01:23.720Z,1.27
2022-10-15T20:03:28.148Z,1.08
2022-10-15T20:05:32.277Z,1.00
2022-10-15T20:07:35.154Z,0.80
2022-10-15T20:09:37.871Z,1.27
2022-10-15T20:11:40.575Z,1.00
2022-10-15T20:13:43.353Z,0.95
2022-10-15T20:15:49.044Z,1.60
2022-10-15T20:17:51.633Z,1.30
2022-10-15T20:19:54.585Z,1.25
2022-10-15T20:21:58.583Z,1.00
2022-10-15T20:24:04.252Z,1.20
2022-10-15T20:26:08.833Z,1.02
2022-10-15T20:28:12.575Z,0.90
2022-10-15T20:30:15.574Z,1.10
2022-10-15T20:32:30.299Z,1.45
2022-10-15T20:34:36.333Z,1.50
2022-10-15T20:36:41.253Z,1.15
2022-10-15T20:38:45.551Z,1.23
2022-10-15T20:40:48.214Z,1.13
2022-10-15T20:42:50.985Z,1.38
2022-10-15T20:44:53.681Z,1.50
2022-10-15T20:47:01.080Z,1.30
2022-10-15T20:49:09.160Z,1.00
2022-10-15T20:51:14.872Z,1.27
2022-10-15T20:53:18.632Z,1.10
2022-10-15T20:55:23.123Z,1.15
2022-10-15T20:57:25.809Z,0.90
2022-10-15T20:59:30.334Z,1.02
2022-10-15T21:01:33.405Z,1.05
2022-10-15T21:03:36.063Z,1.05
2022-10-15T21:05:38.707Z,1.30
2022-10-15T21:07:41.325Z,1.02
2022-10-15T21:09:43.971Z,1.02
2022-10-15T21:11:48.063Z,1.00
2022-10-15T21:13:50.903Z,1.17
2022-10-15T21:15:58.442Z,1.60
2022-10-15T21:18:01.185Z,1.25
2022-10-15T21:20:03.940Z,1.10
2022-10-15T21:22:06.710Z,1.60
2022-10-15T21:24:09.386Z,1.50
2022-10-15T21:26:13.919Z,2.95
2022-10-15T21:28:18.096Z,3.03
2022-10-15T21:30:20.783Z,2.83
2022-10-15T21:32:23.474Z,3.60
2022-10-15T21:34:27.811Z,3.20
2022-10-15T21:36:30.597Z,1.88
2022-10-15T21:38:33.231Z,1.60
2022-10-15T21:40:35.928Z,1.75
2022-10-15T21:42:38.578Z,2.10
2022-10-15T21:44:42.535Z,2.33
2022-10-15T21:46:45.359Z,2.63
2022-10-15T21:48:48.260Z,2.10
2022-10-15T21:50:50.941Z,1.90
2022-10-15T21:52:53.622Z,1.50
2022-10-15T21:54:56.288Z,1.50
2022-10-15T21:56:58.939Z,1.90
2022-10-15T21:59:02.145Z,1.50
2022-10-15T22:01:13.474Z,1.27
2022-10-15T22:03:18.320Z,1.50
2022-10-15T22:05:21.049Z,1.73
2022-10-15T22:07:24.039Z,1.40
2022-10-15T22:09:27.136Z,1.23
2022-10-15T22:11:31.317Z,1.55
2022-10-15T22:13:34.008Z,1.50
2022-10-15T22:15:36.646Z,1.70
2022-10-15T22:17:40.612Z,1.40
2022-10-15T22:19:43.286Z,1.90
2022-10-15T22:21:46.353Z,1.55
2022-10-15T22:23:50.724Z,1.40
2022-10-15T22:25:58.829Z,1.70
2022-10-15T22:28:01.411Z,1.55
2022-10-15T22:30:04.686Z,2.30
2022-10-15T22:32:07.674Z,1.40
2022-10-15T22:34:11.904Z,1.50
2022-10-15T22:36:16.335Z,1.73
2022-10-15T22:38:19.009Z,1.80
2022-10-15T22:40:22.778Z,1.48
2022-10-15T22:42:25.712Z,1.70
2022-10-15T22:44:28.810Z,1.45
2022-10-15T22:46:33.752Z,1.30
2022-10-15T22:48:37.233Z,1.92
2022-10-15T22:50:41.677Z,1.63
2022-10-15T22:52:44.281Z,1.90
2022-10-15T22:54:46.897Z,1.90
2022-10-15T22:56:50.189Z,1.67
2022-10-15T22:58:53.548Z,1.60
2022-10-15T23:00:56.173Z,1.50
2022-10-15T23:02:58.885Z,1.80
2022-10-15T23:05:01.438Z,1.63
2022-10-15T23:07:05.533Z,2.10
2022-10-15T23:09:09.232Z,1.70
2022-10-15T23:11:14.543Z,1.63
2022-10-15T23:13:17.216Z,1.50
2022-10-15T23:15:19.814Z,1.48
2022-10-15T23:19:29.899Z,1.58
2022-10-15T23:21:34.369Z,1.90
2022-10-15T23:23:38.511Z,2.00
2022-10-15T23:25:41.100Z,2.13
2022-10-15T23:27:43.735Z,1.90
2022-10-15T23:29:53.465Z,1.70
2022-10-15T23:32:04.693Z,1.45
2022-10-15T23:34:07.629Z,1.58
2022-10-15T23:36:10.477Z,1.40
2022-10-15T23:38:14.381Z,1.50
2022-10-15T23:40:18.459Z,1.38
2022-10-15T23:42:21.059Z,1.20
2022-10-15T23:44:26.645Z,1.40
2022-10-15T23:46:29.368Z,1.55
2022-10-15T23:48:32.236Z,1.63
2022-10-15T23:50:35.784Z,1.40
2022-10-15T23:52:38.451Z,1.70
2022-10-15T23:54:41.254Z,3.35
2022-10-15T23:56:46.091Z,1.38
2022-10-15T23:58:50.014Z,1.52
